<?xml version="1.0" encoding="UTF-8" standalone="no" ?>
<gpx xmlns="http://www.topografix.com/GPX/1/1" xmlns:xsi="http://www.w3.org/2001/XMLSchema-instance" xsi:schemaLocation="http://www.topografix.com/GPX/1/1 http://www.topografix.com/GPX/1/1/gpx.xsd" version="1.1" creator="VisuGPX - https://www.visugpx.com">
  <metadata>
    <name>rando Etrechy-Vernaise</name>
    <desc><![CDATA[22 km de gare à gare . 
Accès RER C depuis Paris.
rando facile, à faire de préférence durant les beaux jours
[url]http://trekkingzone.wordpress.com[/url]]]></desc>
  </metadata>
  <trk>
    <name><![CDATA[26 févr. 2017 à 10:12:30]]></name>
    <cmt><![CDATA[26 févr. 2017 à 10:12:30]]></cmt>
    <trkseg>
      <trkpt lat="48.49382" lon="2.19413">
        <ele>78</ele>
        <time>2017-02-26T09:12:35Z</time>
      </trkpt>
      <trkpt lat="48.49377" lon="2.19407">
        <ele>82</ele>
        <time>2017-02-26T09:14:09Z</time>
      </trkpt>
      <trkpt lat="48.49393" lon="2.19383">
        <ele>81</ele>
        <time>2017-02-26T09:15:16Z</time>
      </trkpt>
      <trkpt lat="48.49417" lon="2.19324">
        <ele>81</ele>
        <time>2017-02-26T09:15:54Z</time>
      </trkpt>
      <trkpt lat="48.49448" lon="2.19273">
        <ele>81</ele>
        <time>2017-02-26T09:16:30Z</time>
      </trkpt>
      <trkpt lat="48.49432" lon="2.19247">
        <ele>81</ele>
        <time>2017-02-26T09:16:48Z</time>
      </trkpt>
      <trkpt lat="48.49392" lon="2.19213">
        <ele>80</ele>
        <time>2017-02-26T09:17:26Z</time>
      </trkpt>
      <trkpt lat="48.49353" lon="2.19179">
        <ele>80</ele>
        <time>2017-02-26T09:18:04Z</time>
      </trkpt>
      <trkpt lat="48.4933" lon="2.19177">
        <ele>79</ele>
        <time>2017-02-26T09:18:23Z</time>
      </trkpt>
      <trkpt lat="48.4929" lon="2.19143">
        <ele>78</ele>
        <time>2017-02-26T09:19:02Z</time>
      </trkpt>
      <trkpt lat="48.49269" lon="2.19128">
        <ele>78</ele>
        <time>2017-02-26T09:19:18Z</time>
      </trkpt>
      <trkpt lat="48.49259" lon="2.19098">
        <ele>78</ele>
        <time>2017-02-26T09:19:47Z</time>
      </trkpt>
      <trkpt lat="48.4927" lon="2.19067">
        <ele>78</ele>
        <time>2017-02-26T09:20:03Z</time>
      </trkpt>
      <trkpt lat="48.49288" lon="2.19045">
        <ele>78</ele>
        <time>2017-02-26T09:20:19Z</time>
      </trkpt>
      <trkpt lat="48.49299" lon="2.19014">
        <ele>78</ele>
        <time>2017-02-26T09:20:37Z</time>
      </trkpt>
      <trkpt lat="48.49303" lon="2.1898">
        <ele>79</ele>
        <time>2017-02-26T09:20:54Z</time>
      </trkpt>
      <trkpt lat="48.49318" lon="2.18954">
        <ele>79</ele>
        <time>2017-02-26T09:21:27Z</time>
      </trkpt>
      <trkpt lat="48.4934" lon="2.18958">
        <ele>79</ele>
        <time>2017-02-26T09:21:48Z</time>
      </trkpt>
      <trkpt lat="48.49387" lon="2.18949">
        <ele>81</ele>
        <time>2017-02-26T09:22:26Z</time>
      </trkpt>
      <trkpt lat="48.49407" lon="2.18934">
        <ele>81</ele>
        <time>2017-02-26T09:22:41Z</time>
      </trkpt>
      <trkpt lat="48.49421" lon="2.18908">
        <ele>82</ele>
        <time>2017-02-26T09:22:59Z</time>
      </trkpt>
      <trkpt lat="48.49459" lon="2.18868">
        <ele>84</ele>
        <time>2017-02-26T09:23:34Z</time>
      </trkpt>
      <trkpt lat="48.49479" lon="2.18851">
        <ele>85</ele>
        <time>2017-02-26T09:23:51Z</time>
      </trkpt>
      <trkpt lat="48.49487" lon="2.18818">
        <ele>86</ele>
        <time>2017-02-26T09:24:14Z</time>
      </trkpt>
      <trkpt lat="48.49484" lon="2.1875">
        <ele>88</ele>
        <time>2017-02-26T09:24:58Z</time>
      </trkpt>
      <trkpt lat="48.49479" lon="2.18717">
        <ele>89</ele>
        <time>2017-02-26T09:25:16Z</time>
      </trkpt>
      <trkpt lat="48.49466" lon="2.18689">
        <ele>89</ele>
        <time>2017-02-26T09:25:32Z</time>
      </trkpt>
      <trkpt lat="48.49429" lon="2.18648">
        <ele>88</ele>
        <time>2017-02-26T09:26:12Z</time>
      </trkpt>
      <trkpt lat="48.49391" lon="2.18608">
        <ele>86</ele>
        <time>2017-02-26T09:26:45Z</time>
      </trkpt>
      <trkpt lat="48.49356" lon="2.18563">
        <ele>84</ele>
        <time>2017-02-26T09:27:24Z</time>
      </trkpt>
      <trkpt lat="48.4934" lon="2.185">
        <ele>82</ele>
        <time>2017-02-26T09:28:00Z</time>
      </trkpt>
      <trkpt lat="48.4933" lon="2.18433">
        <ele>80</ele>
        <time>2017-02-26T09:28:35Z</time>
      </trkpt>
      <trkpt lat="48.49323" lon="2.18364">
        <ele>79</ele>
        <time>2017-02-26T09:29:14Z</time>
      </trkpt>
      <trkpt lat="48.49311" lon="2.18297">
        <ele>77</ele>
        <time>2017-02-26T09:29:48Z</time>
      </trkpt>
      <trkpt lat="48.49309" lon="2.18262">
        <ele>77</ele>
        <time>2017-02-26T09:30:07Z</time>
      </trkpt>
      <trkpt lat="48.49296" lon="2.18195">
        <ele>76</ele>
        <time>2017-02-26T09:30:40Z</time>
      </trkpt>
      <trkpt lat="48.49284" lon="2.18127">
        <ele>76</ele>
        <time>2017-02-26T09:31:19Z</time>
      </trkpt>
      <trkpt lat="48.49276" lon="2.1806">
        <ele>76</ele>
        <time>2017-02-26T09:31:57Z</time>
      </trkpt>
      <trkpt lat="48.49283" lon="2.17991">
        <ele>77</ele>
        <time>2017-02-26T09:32:37Z</time>
      </trkpt>
      <trkpt lat="48.49284" lon="2.1792">
        <ele>78</ele>
        <time>2017-02-26T09:33:21Z</time>
      </trkpt>
      <trkpt lat="48.49286" lon="2.17885">
        <ele>79</ele>
        <time>2017-02-26T09:33:41Z</time>
      </trkpt>
      <trkpt lat="48.49297" lon="2.17817">
        <ele>81</ele>
        <time>2017-02-26T09:34:20Z</time>
      </trkpt>
      <trkpt lat="48.49304" lon="2.17748">
        <ele>82</ele>
        <time>2017-02-26T09:34:56Z</time>
      </trkpt>
      <trkpt lat="48.49309" lon="2.1768">
        <ele>84</ele>
        <time>2017-02-26T09:35:32Z</time>
      </trkpt>
      <trkpt lat="48.49311" lon="2.17611">
        <ele>86</ele>
        <time>2017-02-26T09:36:09Z</time>
      </trkpt>
      <trkpt lat="48.49314" lon="2.17542">
        <ele>90</ele>
        <time>2017-02-26T09:36:48Z</time>
      </trkpt>
      <trkpt lat="48.4932" lon="2.17473">
        <ele>93</ele>
        <time>2017-02-26T09:37:28Z</time>
      </trkpt>
      <trkpt lat="48.49328" lon="2.17404">
        <ele>96</ele>
        <time>2017-02-26T09:38:07Z</time>
      </trkpt>
      <trkpt lat="48.49326" lon="2.17369">
        <ele>97</ele>
        <time>2017-02-26T09:38:25Z</time>
      </trkpt>
      <trkpt lat="48.49327" lon="2.17334">
        <ele>99</ele>
        <time>2017-02-26T09:38:44Z</time>
      </trkpt>
      <trkpt lat="48.4932" lon="2.17265">
        <ele>102</ele>
        <time>2017-02-26T09:39:24Z</time>
      </trkpt>
      <trkpt lat="48.49314" lon="2.17196">
        <ele>106</ele>
        <time>2017-02-26T09:40:02Z</time>
      </trkpt>
      <trkpt lat="48.49326" lon="2.17166">
        <ele>108</ele>
        <time>2017-02-26T09:40:28Z</time>
      </trkpt>
      <trkpt lat="48.49359" lon="2.17118">
        <ele>112</ele>
        <time>2017-02-26T09:41:16Z</time>
      </trkpt>
      <trkpt lat="48.49372" lon="2.1709">
        <ele>117</ele>
        <time>2017-02-26T09:42:42Z</time>
      </trkpt>
      <trkpt lat="48.49383" lon="2.17058">
        <ele>119</ele>
        <time>2017-02-26T09:48:13Z</time>
      </trkpt>
      <trkpt lat="48.49398" lon="2.17032">
        <ele>117</ele>
        <time>2017-02-26T09:48:40Z</time>
      </trkpt>
      <trkpt lat="48.49418" lon="2.16968">
        <ele>115</ele>
        <time>2017-02-26T09:49:25Z</time>
      </trkpt>
      <trkpt lat="48.49428" lon="2.169">
        <ele>114</ele>
        <time>2017-02-26T09:50:03Z</time>
      </trkpt>
      <trkpt lat="48.49474" lon="2.16819">
        <ele>112</ele>
        <time>2017-02-26T09:50:47Z</time>
      </trkpt>
      <trkpt lat="48.49482" lon="2.16751">
        <ele>110</ele>
        <time>2017-02-26T09:51:22Z</time>
      </trkpt>
      <trkpt lat="48.49483" lon="2.16682">
        <ele>110</ele>
        <time>2017-02-26T09:51:58Z</time>
      </trkpt>
      <trkpt lat="48.49498" lon="2.16616">
        <ele>110</ele>
        <time>2017-02-26T09:52:38Z</time>
      </trkpt>
      <trkpt lat="48.495" lon="2.1658">
        <ele>110</ele>
        <time>2017-02-26T09:52:56Z</time>
      </trkpt>
      <trkpt lat="48.49499" lon="2.16556">
        <ele>111</ele>
        <time>2017-02-26T09:53:43Z</time>
      </trkpt>
      <trkpt lat="48.495" lon="2.16521">
        <ele>111</ele>
        <time>2017-02-26T09:54:38Z</time>
      </trkpt>
      <trkpt lat="48.49516" lon="2.16455">
        <ele>113</ele>
        <time>2017-02-26T09:55:11Z</time>
      </trkpt>
      <trkpt lat="48.4952" lon="2.16386">
        <ele>115</ele>
        <time>2017-02-26T09:55:53Z</time>
      </trkpt>
      <trkpt lat="48.49521" lon="2.16317">
        <ele>117</ele>
        <time>2017-02-26T09:56:35Z</time>
      </trkpt>
      <trkpt lat="48.49514" lon="2.16249">
        <ele>118</ele>
        <time>2017-02-26T09:57:11Z</time>
      </trkpt>
      <trkpt lat="48.49516" lon="2.16179">
        <ele>121</ele>
        <time>2017-02-26T09:57:56Z</time>
      </trkpt>
      <trkpt lat="48.49518" lon="2.16145">
        <ele>122</ele>
        <time>2017-02-26T09:58:17Z</time>
      </trkpt>
      <trkpt lat="48.49546" lon="2.16092">
        <ele>126</ele>
        <time>2017-02-26T09:59:00Z</time>
      </trkpt>
      <trkpt lat="48.49564" lon="2.1607">
        <ele>128</ele>
        <time>2017-02-26T09:59:21Z</time>
      </trkpt>
      <trkpt lat="48.49589" lon="2.16012">
        <ele>133</ele>
        <time>2017-02-26T10:00:03Z</time>
      </trkpt>
      <trkpt lat="48.49608" lon="2.15947">
        <ele>139</ele>
        <time>2017-02-26T10:00:48Z</time>
      </trkpt>
      <trkpt lat="48.49626" lon="2.15885">
        <ele>142</ele>
        <time>2017-02-26T10:01:26Z</time>
      </trkpt>
      <trkpt lat="48.49648" lon="2.15902">
        <ele>147</ele>
        <time>2017-02-26T10:03:10Z</time>
      </trkpt>
      <trkpt lat="48.49689" lon="2.15935">
        <ele>148</ele>
        <time>2017-02-26T10:03:41Z</time>
      </trkpt>
      <trkpt lat="48.49731" lon="2.15969">
        <ele>148</ele>
        <time>2017-02-26T10:04:18Z</time>
      </trkpt>
      <trkpt lat="48.49767" lon="2.16012">
        <ele>149</ele>
        <time>2017-02-26T10:04:56Z</time>
      </trkpt>
      <trkpt lat="48.49799" lon="2.1606">
        <ele>150</ele>
        <time>2017-02-26T10:05:33Z</time>
      </trkpt>
      <trkpt lat="48.49828" lon="2.16116">
        <ele>150</ele>
        <time>2017-02-26T10:06:10Z</time>
      </trkpt>
      <trkpt lat="48.49843" lon="2.16143">
        <ele>149</ele>
        <time>2017-02-26T10:06:26Z</time>
      </trkpt>
      <trkpt lat="48.49864" lon="2.16204">
        <ele>149</ele>
        <time>2017-02-26T10:07:01Z</time>
      </trkpt>
      <trkpt lat="48.49886" lon="2.16266">
        <ele>148</ele>
        <time>2017-02-26T10:07:36Z</time>
      </trkpt>
      <trkpt lat="48.49904" lon="2.1633">
        <ele>148</ele>
        <time>2017-02-26T10:08:10Z</time>
      </trkpt>
      <trkpt lat="48.49923" lon="2.16394">
        <ele>148</ele>
        <time>2017-02-26T10:08:45Z</time>
      </trkpt>
      <trkpt lat="48.49931" lon="2.16426">
        <ele>148</ele>
        <time>2017-02-26T10:09:04Z</time>
      </trkpt>
      <trkpt lat="48.49952" lon="2.16489">
        <ele>148</ele>
        <time>2017-02-26T10:09:38Z</time>
      </trkpt>
      <trkpt lat="48.49959" lon="2.16523">
        <ele>148</ele>
        <time>2017-02-26T10:09:58Z</time>
      </trkpt>
      <trkpt lat="48.49984" lon="2.16582">
        <ele>148</ele>
        <time>2017-02-26T10:10:28Z</time>
      </trkpt>
      <trkpt lat="48.49996" lon="2.16648">
        <ele>149</ele>
        <time>2017-02-26T10:11:04Z</time>
      </trkpt>
      <trkpt lat="48.50015" lon="2.16712">
        <ele>149</ele>
        <time>2017-02-26T10:11:38Z</time>
      </trkpt>
      <trkpt lat="48.50027" lon="2.16778">
        <ele>150</ele>
        <time>2017-02-26T10:12:15Z</time>
      </trkpt>
      <trkpt lat="48.50038" lon="2.16845">
        <ele>151</ele>
        <time>2017-02-26T10:12:50Z</time>
      </trkpt>
      <trkpt lat="48.5005" lon="2.16912">
        <ele>150</ele>
        <time>2017-02-26T10:13:27Z</time>
      </trkpt>
      <trkpt lat="48.50059" lon="2.16945">
        <ele>150</ele>
        <time>2017-02-26T10:13:45Z</time>
      </trkpt>
      <trkpt lat="48.50063" lon="2.1698">
        <ele>150</ele>
        <time>2017-02-26T10:14:05Z</time>
      </trkpt>
      <trkpt lat="48.50076" lon="2.17008">
        <ele>150</ele>
        <time>2017-02-26T10:14:46Z</time>
      </trkpt>
      <trkpt lat="48.50093" lon="2.17033">
        <ele>150</ele>
        <time>2017-02-26T10:16:06Z</time>
      </trkpt>
      <trkpt lat="48.50133" lon="2.17071">
        <ele>150</ele>
        <time>2017-02-26T10:16:46Z</time>
      </trkpt>
      <trkpt lat="48.50153" lon="2.1709">
        <ele>149</ele>
        <time>2017-02-26T10:17:05Z</time>
      </trkpt>
      <trkpt lat="48.50175" lon="2.17102">
        <ele>149</ele>
        <time>2017-02-26T10:17:21Z</time>
      </trkpt>
      <trkpt lat="48.50221" lon="2.17104">
        <ele>149</ele>
        <time>2017-02-26T10:17:55Z</time>
      </trkpt>
      <trkpt lat="48.50264" lon="2.17129">
        <ele>150</ele>
        <time>2017-02-26T10:18:31Z</time>
      </trkpt>
      <trkpt lat="48.50305" lon="2.1716">
        <ele>150</ele>
        <time>2017-02-26T10:19:05Z</time>
      </trkpt>
      <trkpt lat="48.50347" lon="2.17192">
        <ele>150</ele>
        <time>2017-02-26T10:19:40Z</time>
      </trkpt>
      <trkpt lat="48.50388" lon="2.17224">
        <ele>151</ele>
        <time>2017-02-26T10:20:18Z</time>
      </trkpt>
      <trkpt lat="48.50409" lon="2.17237">
        <ele>150</ele>
        <time>2017-02-26T10:20:35Z</time>
      </trkpt>
      <trkpt lat="48.50429" lon="2.17257">
        <ele>150</ele>
        <time>2017-02-26T10:20:55Z</time>
      </trkpt>
      <trkpt lat="48.50473" lon="2.17271">
        <ele>151</ele>
        <time>2017-02-26T10:21:29Z</time>
      </trkpt>
      <trkpt lat="48.50518" lon="2.17281">
        <ele>151</ele>
        <time>2017-02-26T10:22:05Z</time>
      </trkpt>
      <trkpt lat="48.50565" lon="2.1728">
        <ele>150</ele>
        <time>2017-02-26T10:22:42Z</time>
      </trkpt>
      <trkpt lat="48.50611" lon="2.17277">
        <ele>150</ele>
        <time>2017-02-26T10:23:19Z</time>
      </trkpt>
      <trkpt lat="48.50657" lon="2.17273">
        <ele>149</ele>
        <time>2017-02-26T10:23:56Z</time>
      </trkpt>
      <trkpt lat="48.5068" lon="2.1728">
        <ele>149</ele>
        <time>2017-02-26T10:24:37Z</time>
      </trkpt>
      <trkpt lat="48.50717" lon="2.17322">
        <ele>150</ele>
        <time>2017-02-26T10:25:14Z</time>
      </trkpt>
      <trkpt lat="48.50756" lon="2.1736">
        <ele>150</ele>
        <time>2017-02-26T10:25:48Z</time>
      </trkpt>
      <trkpt lat="48.50793" lon="2.17402">
        <ele>151</ele>
        <time>2017-02-26T10:26:27Z</time>
      </trkpt>
      <trkpt lat="48.5083" lon="2.17447">
        <ele>151</ele>
        <time>2017-02-26T10:27:04Z</time>
      </trkpt>
      <trkpt lat="48.50866" lon="2.1749">
        <ele>151</ele>
        <time>2017-02-26T10:27:40Z</time>
      </trkpt>
      <trkpt lat="48.50902" lon="2.17533">
        <ele>152</ele>
        <time>2017-02-26T10:28:16Z</time>
      </trkpt>
      <trkpt lat="48.50941" lon="2.17574">
        <ele>152</ele>
        <time>2017-02-26T10:28:52Z</time>
      </trkpt>
      <trkpt lat="48.5098" lon="2.17614">
        <ele>152</ele>
        <time>2017-02-26T10:29:28Z</time>
      </trkpt>
      <trkpt lat="48.51018" lon="2.17657">
        <ele>151</ele>
        <time>2017-02-26T10:30:05Z</time>
      </trkpt>
      <trkpt lat="48.51054" lon="2.17699">
        <ele>151</ele>
        <time>2017-02-26T10:30:40Z</time>
      </trkpt>
      <trkpt lat="48.5109" lon="2.17742">
        <ele>152</ele>
        <time>2017-02-26T10:31:15Z</time>
      </trkpt>
      <trkpt lat="48.51129" lon="2.1778">
        <ele>152</ele>
        <time>2017-02-26T10:31:51Z</time>
      </trkpt>
      <trkpt lat="48.5117" lon="2.17808">
        <ele>151</ele>
        <time>2017-02-26T10:32:26Z</time>
      </trkpt>
      <trkpt lat="48.51213" lon="2.17836">
        <ele>151</ele>
        <time>2017-02-26T10:33:00Z</time>
      </trkpt>
      <trkpt lat="48.51255" lon="2.17864">
        <ele>151</ele>
        <time>2017-02-26T10:33:37Z</time>
      </trkpt>
      <trkpt lat="48.51296" lon="2.17895">
        <ele>152</ele>
        <time>2017-02-26T10:34:12Z</time>
      </trkpt>
      <trkpt lat="48.51338" lon="2.1792">
        <ele>153</ele>
        <time>2017-02-26T10:34:46Z</time>
      </trkpt>
      <trkpt lat="48.5138" lon="2.17948">
        <ele>153</ele>
        <time>2017-02-26T10:35:19Z</time>
      </trkpt>
      <trkpt lat="48.51421" lon="2.17976">
        <ele>153</ele>
        <time>2017-02-26T10:35:54Z</time>
      </trkpt>
      <trkpt lat="48.51464" lon="2.18002">
        <ele>152</ele>
        <time>2017-02-26T10:36:27Z</time>
      </trkpt>
      <trkpt lat="48.51503" lon="2.18036">
        <ele>152</ele>
        <time>2017-02-26T10:37:03Z</time>
      </trkpt>
      <trkpt lat="48.51545" lon="2.18068">
        <ele>152</ele>
        <time>2017-02-26T10:37:41Z</time>
      </trkpt>
      <trkpt lat="48.51587" lon="2.18098">
        <ele>152</ele>
        <time>2017-02-26T10:38:19Z</time>
      </trkpt>
      <trkpt lat="48.5163" lon="2.18126">
        <ele>153</ele>
        <time>2017-02-26T10:38:55Z</time>
      </trkpt>
      <trkpt lat="48.51673" lon="2.18153">
        <ele>154</ele>
        <time>2017-02-26T10:39:30Z</time>
      </trkpt>
      <trkpt lat="48.51714" lon="2.18183">
        <ele>154</ele>
        <time>2017-02-26T10:40:08Z</time>
      </trkpt>
      <trkpt lat="48.51758" lon="2.18211">
        <ele>155</ele>
        <time>2017-02-26T10:40:45Z</time>
      </trkpt>
      <trkpt lat="48.518" lon="2.18239">
        <ele>155</ele>
        <time>2017-02-26T10:41:20Z</time>
      </trkpt>
      <trkpt lat="48.51842" lon="2.18269">
        <ele>155</ele>
        <time>2017-02-26T10:42:00Z</time>
      </trkpt>
      <trkpt lat="48.51885" lon="2.18296">
        <ele>156</ele>
        <time>2017-02-26T10:42:37Z</time>
      </trkpt>
      <trkpt lat="48.51928" lon="2.18322">
        <ele>156</ele>
        <time>2017-02-26T10:43:14Z</time>
      </trkpt>
      <trkpt lat="48.51974" lon="2.18337">
        <ele>156</ele>
        <time>2017-02-26T10:43:50Z</time>
      </trkpt>
      <trkpt lat="48.5202" lon="2.18355">
        <ele>156</ele>
        <time>2017-02-26T10:44:26Z</time>
      </trkpt>
      <trkpt lat="48.52064" lon="2.18374">
        <ele>155</ele>
        <time>2017-02-26T10:45:03Z</time>
      </trkpt>
      <trkpt lat="48.52109" lon="2.18392">
        <ele>155</ele>
        <time>2017-02-26T10:45:40Z</time>
      </trkpt>
      <trkpt lat="48.52154" lon="2.18409">
        <ele>155</ele>
        <time>2017-02-26T10:46:16Z</time>
      </trkpt>
      <trkpt lat="48.52199" lon="2.18426">
        <ele>155</ele>
        <time>2017-02-26T10:46:52Z</time>
      </trkpt>
      <trkpt lat="48.52244" lon="2.18442">
        <ele>155</ele>
        <time>2017-02-26T10:47:29Z</time>
      </trkpt>
      <trkpt lat="48.52286" lon="2.18469">
        <ele>154</ele>
        <time>2017-02-26T10:48:04Z</time>
      </trkpt>
      <trkpt lat="48.52324" lon="2.18508">
        <ele>154</ele>
        <time>2017-02-26T10:48:45Z</time>
      </trkpt>
      <trkpt lat="48.52364" lon="2.18542">
        <ele>154</ele>
        <time>2017-02-26T10:49:20Z</time>
      </trkpt>
      <trkpt lat="48.52405" lon="2.18578">
        <ele>154</ele>
        <time>2017-02-26T10:49:55Z</time>
      </trkpt>
      <trkpt lat="48.52445" lon="2.18614">
        <ele>155</ele>
        <time>2017-02-26T10:50:33Z</time>
      </trkpt>
      <trkpt lat="48.52485" lon="2.18652">
        <ele>155</ele>
        <time>2017-02-26T10:51:11Z</time>
      </trkpt>
      <trkpt lat="48.52525" lon="2.18689">
        <ele>154</ele>
        <time>2017-02-26T10:51:45Z</time>
      </trkpt>
      <trkpt lat="48.52567" lon="2.18723">
        <ele>154</ele>
        <time>2017-02-26T10:52:20Z</time>
      </trkpt>
      <trkpt lat="48.52606" lon="2.1876">
        <ele>154</ele>
        <time>2017-02-26T10:52:55Z</time>
      </trkpt>
      <trkpt lat="48.52646" lon="2.18795">
        <ele>154</ele>
        <time>2017-02-26T10:53:32Z</time>
      </trkpt>
      <trkpt lat="48.52686" lon="2.18831">
        <ele>153</ele>
        <time>2017-02-26T10:54:08Z</time>
      </trkpt>
      <trkpt lat="48.52725" lon="2.18868">
        <ele>153</ele>
        <time>2017-02-26T10:54:45Z</time>
      </trkpt>
      <trkpt lat="48.52766" lon="2.189">
        <ele>152</ele>
        <time>2017-02-26T10:55:17Z</time>
      </trkpt>
      <trkpt lat="48.52806" lon="2.18935">
        <ele>152</ele>
        <time>2017-02-26T10:55:53Z</time>
      </trkpt>
      <trkpt lat="48.52847" lon="2.1897">
        <ele>151</ele>
        <time>2017-02-26T10:56:29Z</time>
      </trkpt>
      <trkpt lat="48.52867" lon="2.18989">
        <ele>151</ele>
        <time>2017-02-26T10:56:48Z</time>
      </trkpt>
      <trkpt lat="48.52866" lon="2.19022">
        <ele>151</ele>
        <time>2017-02-26T10:57:10Z</time>
      </trkpt>
      <trkpt lat="48.5286" lon="2.19055">
        <ele>151</ele>
        <time>2017-02-26T10:57:32Z</time>
      </trkpt>
      <trkpt lat="48.5286" lon="2.1909">
        <ele>153</ele>
        <time>2017-02-26T11:03:10Z</time>
      </trkpt>
      <trkpt lat="48.52854" lon="2.19124">
        <ele>153</ele>
        <time>2017-02-26T11:03:33Z</time>
      </trkpt>
      <trkpt lat="48.52849" lon="2.19193">
        <ele>152</ele>
        <time>2017-02-26T11:04:07Z</time>
      </trkpt>
      <trkpt lat="48.52854" lon="2.19227">
        <ele>152</ele>
        <time>2017-02-26T11:04:25Z</time>
      </trkpt>
      <trkpt lat="48.52845" lon="2.19258">
        <ele>152</ele>
        <time>2017-02-26T11:04:46Z</time>
      </trkpt>
      <trkpt lat="48.52851" lon="2.19292">
        <ele>152</ele>
        <time>2017-02-26T11:05:08Z</time>
      </trkpt>
      <trkpt lat="48.52862" lon="2.19322">
        <ele>152</ele>
        <time>2017-02-26T11:05:33Z</time>
      </trkpt>
      <trkpt lat="48.52877" lon="2.19347">
        <ele>152</ele>
        <time>2017-02-26T11:05:51Z</time>
      </trkpt>
      <trkpt lat="48.52896" lon="2.19368">
        <ele>152</ele>
        <time>2017-02-26T11:06:11Z</time>
      </trkpt>
      <trkpt lat="48.52941" lon="2.19379">
        <ele>153</ele>
        <time>2017-02-26T11:06:47Z</time>
      </trkpt>
      <trkpt lat="48.52985" lon="2.19394">
        <ele>153</ele>
        <time>2017-02-26T11:07:27Z</time>
      </trkpt>
      <trkpt lat="48.53005" lon="2.1941">
        <ele>152</ele>
        <time>2017-02-26T11:11:22Z</time>
      </trkpt>
      <trkpt lat="48.52995" lon="2.1944">
        <ele>153</ele>
        <time>2017-02-26T11:11:47Z</time>
      </trkpt>
      <trkpt lat="48.52992" lon="2.19475">
        <ele>153</ele>
        <time>2017-02-26T11:12:07Z</time>
      </trkpt>
      <trkpt lat="48.53002" lon="2.19507">
        <ele>153</ele>
        <time>2017-02-26T11:12:27Z</time>
      </trkpt>
      <trkpt lat="48.53037" lon="2.19551">
        <ele>153</ele>
        <time>2017-02-26T11:13:03Z</time>
      </trkpt>
      <trkpt lat="48.53072" lon="2.19595">
        <ele>153</ele>
        <time>2017-02-26T11:13:40Z</time>
      </trkpt>
      <trkpt lat="48.53091" lon="2.19616">
        <ele>153</ele>
        <time>2017-02-26T11:13:59Z</time>
      </trkpt>
      <trkpt lat="48.53114" lon="2.19615">
        <ele>153</ele>
        <time>2017-02-26T11:14:22Z</time>
      </trkpt>
      <trkpt lat="48.53128" lon="2.19589">
        <ele>154</ele>
        <time>2017-02-26T11:14:46Z</time>
      </trkpt>
      <trkpt lat="48.53167" lon="2.19549">
        <ele>153</ele>
        <time>2017-02-26T11:15:25Z</time>
      </trkpt>
      <trkpt lat="48.53206" lon="2.19513">
        <ele>153</ele>
        <time>2017-02-26T11:16:07Z</time>
      </trkpt>
      <trkpt lat="48.53246" lon="2.19476">
        <ele>153</ele>
        <time>2017-02-26T11:16:42Z</time>
      </trkpt>
      <trkpt lat="48.53265" lon="2.19456">
        <ele>152</ele>
        <time>2017-02-26T11:17:00Z</time>
      </trkpt>
      <trkpt lat="48.53308" lon="2.19431">
        <ele>152</ele>
        <time>2017-02-26T11:17:39Z</time>
      </trkpt>
      <trkpt lat="48.5333" lon="2.19425">
        <ele>152</ele>
        <time>2017-02-26T11:17:59Z</time>
      </trkpt>
      <trkpt lat="48.53377" lon="2.19431">
        <ele>151</ele>
        <time>2017-02-26T11:18:40Z</time>
      </trkpt>
      <trkpt lat="48.53397" lon="2.19448">
        <ele>151</ele>
        <time>2017-02-26T11:18:57Z</time>
      </trkpt>
      <trkpt lat="48.53433" lon="2.19491">
        <ele>150</ele>
        <time>2017-02-26T11:19:32Z</time>
      </trkpt>
      <trkpt lat="48.5347" lon="2.19531">
        <ele>150</ele>
        <time>2017-02-26T11:20:06Z</time>
      </trkpt>
      <trkpt lat="48.53514" lon="2.19557">
        <ele>150</ele>
        <time>2017-02-26T11:20:44Z</time>
      </trkpt>
      <trkpt lat="48.53554" lon="2.19589">
        <ele>150</ele>
        <time>2017-02-26T11:21:22Z</time>
      </trkpt>
      <trkpt lat="48.53565" lon="2.19596">
        <ele>149</ele>
        <time>2017-02-26T11:23:12Z</time>
      </trkpt>
      <trkpt lat="48.53584" lon="2.19615">
        <ele>148</ele>
        <time>2017-02-26T11:24:40Z</time>
      </trkpt>
      <trkpt lat="48.53625" lon="2.19649">
        <ele>146</ele>
        <time>2017-02-26T11:25:21Z</time>
      </trkpt>
      <trkpt lat="48.53667" lon="2.1968">
        <ele>145</ele>
        <time>2017-02-26T11:25:52Z</time>
      </trkpt>
      <trkpt lat="48.53712" lon="2.19699">
        <ele>144</ele>
        <time>2017-02-26T11:26:26Z</time>
      </trkpt>
      <trkpt lat="48.53734" lon="2.19708">
        <ele>144</ele>
        <time>2017-02-26T11:26:41Z</time>
      </trkpt>
      <trkpt lat="48.53758" lon="2.19707">
        <ele>145</ele>
        <time>2017-02-26T11:28:05Z</time>
      </trkpt>
      <trkpt lat="48.53802" lon="2.1968">
        <ele>144</ele>
        <time>2017-02-26T11:28:48Z</time>
      </trkpt>
      <trkpt lat="48.5384" lon="2.19643">
        <ele>144</ele>
        <time>2017-02-26T11:29:38Z</time>
      </trkpt>
      <trkpt lat="48.53861" lon="2.19626">
        <ele>144</ele>
        <time>2017-02-26T11:29:59Z</time>
      </trkpt>
      <trkpt lat="48.53903" lon="2.196">
        <ele>144</ele>
        <time>2017-02-26T11:30:42Z</time>
      </trkpt>
      <trkpt lat="48.53924" lon="2.19586">
        <ele>144</ele>
        <time>2017-02-26T11:31:03Z</time>
      </trkpt>
      <trkpt lat="48.53942" lon="2.19565">
        <ele>144</ele>
        <time>2017-02-26T11:31:21Z</time>
      </trkpt>
      <trkpt lat="48.53964" lon="2.19559">
        <ele>144</ele>
        <time>2017-02-26T11:31:39Z</time>
      </trkpt>
      <trkpt lat="48.54001" lon="2.19521">
        <ele>144</ele>
        <time>2017-02-26T11:32:24Z</time>
      </trkpt>
      <trkpt lat="48.54021" lon="2.19503">
        <ele>144</ele>
        <time>2017-02-26T11:32:41Z</time>
      </trkpt>
      <trkpt lat="48.54037" lon="2.19478">
        <ele>144</ele>
        <time>2017-02-26T11:32:59Z</time>
      </trkpt>
      <trkpt lat="48.54078" lon="2.19444">
        <ele>145</ele>
        <time>2017-02-26T11:33:43Z</time>
      </trkpt>
      <trkpt lat="48.54119" lon="2.19409">
        <ele>146</ele>
        <time>2017-02-26T11:34:14Z</time>
      </trkpt>
      <trkpt lat="48.54154" lon="2.19367">
        <ele>147</ele>
        <time>2017-02-26T11:34:49Z</time>
      </trkpt>
      <trkpt lat="48.5419" lon="2.19324">
        <ele>148</ele>
        <time>2017-02-26T11:35:21Z</time>
      </trkpt>
      <trkpt lat="48.54206" lon="2.19299">
        <ele>149</ele>
        <time>2017-02-26T11:35:42Z</time>
      </trkpt>
      <trkpt lat="48.54228" lon="2.1929">
        <ele>149</ele>
        <time>2017-02-26T11:35:56Z</time>
      </trkpt>
      <trkpt lat="48.54234" lon="2.19281">
        <ele>149</ele>
        <time>2017-02-26T11:36:10Z</time>
      </trkpt>
      <trkpt lat="48.5422" lon="2.19252">
        <ele>152</ele>
        <time>2017-02-26T11:38:49Z</time>
      </trkpt>
      <trkpt lat="48.54205" lon="2.19226">
        <ele>152</ele>
        <time>2017-02-26T11:39:19Z</time>
      </trkpt>
      <trkpt lat="48.54195" lon="2.19195">
        <ele>152</ele>
        <time>2017-02-26T11:39:39Z</time>
      </trkpt>
      <trkpt lat="48.54206" lon="2.19164">
        <ele>152</ele>
        <time>2017-02-26T11:40:08Z</time>
      </trkpt>
      <trkpt lat="48.54199" lon="2.19131">
        <ele>152</ele>
        <time>2017-02-26T11:40:34Z</time>
      </trkpt>
      <trkpt lat="48.54183" lon="2.19107">
        <ele>152</ele>
        <time>2017-02-26T11:40:57Z</time>
      </trkpt>
      <trkpt lat="48.5417" lon="2.19077">
        <ele>151</ele>
        <time>2017-02-26T11:41:29Z</time>
      </trkpt>
      <trkpt lat="48.54144" lon="2.19018">
        <ele>152</ele>
        <time>2017-02-26T11:42:10Z</time>
      </trkpt>
      <trkpt lat="48.54127" lon="2.18952">
        <ele>152</ele>
        <time>2017-02-26T11:42:51Z</time>
      </trkpt>
      <trkpt lat="48.54112" lon="2.18926">
        <ele>152</ele>
        <time>2017-02-26T11:43:12Z</time>
      </trkpt>
      <trkpt lat="48.54102" lon="2.18895">
        <ele>152</ele>
        <time>2017-02-26T11:43:35Z</time>
      </trkpt>
      <trkpt lat="48.54095" lon="2.18827">
        <ele>151</ele>
        <time>2017-02-26T11:44:25Z</time>
      </trkpt>
      <trkpt lat="48.54097" lon="2.18792">
        <ele>151</ele>
        <time>2017-02-26T11:44:44Z</time>
      </trkpt>
      <trkpt lat="48.54093" lon="2.18758">
        <ele>150</ele>
        <time>2017-02-26T11:45:03Z</time>
      </trkpt>
      <trkpt lat="48.54099" lon="2.18724">
        <ele>149</ele>
        <time>2017-02-26T11:45:25Z</time>
      </trkpt>
      <trkpt lat="48.541" lon="2.18682">
        <ele>147</ele>
        <time>2017-02-26T11:45:50Z</time>
      </trkpt>
      <trkpt lat="48.54105" lon="2.18648">
        <ele>144</ele>
        <time>2017-02-26T11:46:17Z</time>
      </trkpt>
      <trkpt lat="48.54099" lon="2.18575">
        <ele>139</ele>
        <time>2017-02-26T11:47:06Z</time>
      </trkpt>
      <trkpt lat="48.54096" lon="2.18541">
        <ele>136</ele>
        <time>2017-02-26T11:47:27Z</time>
      </trkpt>
      <trkpt lat="48.54111" lon="2.18516">
        <ele>131</ele>
        <time>2017-02-26T11:47:56Z</time>
      </trkpt>
      <trkpt lat="48.54107" lon="2.18481">
        <ele>112</ele>
        <time>2017-02-26T11:48:59Z</time>
      </trkpt>
      <trkpt lat="48.5411" lon="2.18448">
        <ele>107</ele>
        <time>2017-02-26T11:50:45Z</time>
      </trkpt>
      <trkpt lat="48.54109" lon="2.18414">
        <ele>105</ele>
        <time>2017-02-26T11:51:07Z</time>
      </trkpt>
      <trkpt lat="48.54114" lon="2.18379">
        <ele>103</ele>
        <time>2017-02-26T11:51:29Z</time>
      </trkpt>
      <trkpt lat="48.54109" lon="2.1831">
        <ele>101</ele>
        <time>2017-02-26T11:52:05Z</time>
      </trkpt>
      <trkpt lat="48.54104" lon="2.18241">
        <ele>97</ele>
        <time>2017-02-26T11:52:43Z</time>
      </trkpt>
      <trkpt lat="48.54098" lon="2.18172">
        <ele>93</ele>
        <time>2017-02-26T11:53:17Z</time>
      </trkpt>
      <trkpt lat="48.54102" lon="2.18104">
        <ele>91</ele>
        <time>2017-02-26T11:54:07Z</time>
      </trkpt>
      <trkpt lat="48.54125" lon="2.18044">
        <ele>90</ele>
        <time>2017-02-26T11:54:52Z</time>
      </trkpt>
      <trkpt lat="48.54137" lon="2.18015">
        <ele>90</ele>
        <time>2017-02-26T11:55:12Z</time>
      </trkpt>
      <trkpt lat="48.54145" lon="2.17982">
        <ele>90</ele>
        <time>2017-02-26T11:55:37Z</time>
      </trkpt>
      <trkpt lat="48.54143" lon="2.17948">
        <ele>90</ele>
        <time>2017-02-26T11:56:03Z</time>
      </trkpt>
      <trkpt lat="48.54127" lon="2.17923">
        <ele>91</ele>
        <time>2017-02-26T11:57:26Z</time>
      </trkpt>
      <trkpt lat="48.54107" lon="2.17904">
        <ele>92</ele>
        <time>2017-02-26T11:57:59Z</time>
      </trkpt>
      <trkpt lat="48.54117" lon="2.17873">
        <ele>91</ele>
        <time>2017-02-26T11:58:24Z</time>
      </trkpt>
      <trkpt lat="48.54117" lon="2.17838">
        <ele>93</ele>
        <time>2017-02-26T12:03:20Z</time>
      </trkpt>
      <trkpt lat="48.54093" lon="2.17777">
        <ele>92</ele>
        <time>2017-02-26T12:04:07Z</time>
      </trkpt>
      <trkpt lat="48.5409" lon="2.17771">
        <ele>92</ele>
        <time>2017-02-26T12:04:13Z</time>
      </trkpt>
      <trkpt lat="48.54084" lon="2.17767">
        <ele>92</ele>
        <time>2017-02-26T12:04:39Z</time>
      </trkpt>
      <trkpt lat="48.54102" lon="2.17745">
        <ele>93</ele>
        <time>2017-02-26T12:05:23Z</time>
      </trkpt>
      <trkpt lat="48.54123" lon="2.17679">
        <ele>94</ele>
        <time>2017-02-26T12:06:00Z</time>
      </trkpt>
      <trkpt lat="48.54136" lon="2.1765">
        <ele>94</ele>
        <time>2017-02-26T12:06:16Z</time>
      </trkpt>
      <trkpt lat="48.54144" lon="2.17618">
        <ele>94</ele>
        <time>2017-02-26T12:06:32Z</time>
      </trkpt>
      <trkpt lat="48.54156" lon="2.1759">
        <ele>95</ele>
        <time>2017-02-26T12:06:51Z</time>
      </trkpt>
      <trkpt lat="48.5417" lon="2.17523">
        <ele>95</ele>
        <time>2017-02-26T12:07:24Z</time>
      </trkpt>
      <trkpt lat="48.54201" lon="2.1747">
        <ele>95</ele>
        <time>2017-02-26T12:08:03Z</time>
      </trkpt>
      <trkpt lat="48.54222" lon="2.1741">
        <ele>93</ele>
        <time>2017-02-26T12:08:40Z</time>
      </trkpt>
      <trkpt lat="48.54257" lon="2.17365">
        <ele>90</ele>
        <time>2017-02-26T12:09:19Z</time>
      </trkpt>
      <trkpt lat="48.54259" lon="2.17314">
        <ele>87</ele>
        <time>2017-02-26T13:08:37Z</time>
      </trkpt>
      <trkpt lat="48.54266" lon="2.17279">
        <ele>86</ele>
        <time>2017-02-26T13:08:59Z</time>
      </trkpt>
      <trkpt lat="48.54282" lon="2.17253">
        <ele>85</ele>
        <time>2017-02-26T13:09:33Z</time>
      </trkpt>
      <trkpt lat="48.54291" lon="2.17223">
        <ele>84</ele>
        <time>2017-02-26T13:09:58Z</time>
      </trkpt>
      <trkpt lat="48.54317" lon="2.17167">
        <ele>83</ele>
        <time>2017-02-26T13:10:36Z</time>
      </trkpt>
      <trkpt lat="48.54336" lon="2.17103">
        <ele>80</ele>
        <time>2017-02-26T13:11:16Z</time>
      </trkpt>
      <trkpt lat="48.54359" lon="2.17044">
        <ele>78</ele>
        <time>2017-02-26T13:11:57Z</time>
      </trkpt>
      <trkpt lat="48.54376" lon="2.1698">
        <ele>74</ele>
        <time>2017-02-26T13:12:39Z</time>
      </trkpt>
      <trkpt lat="48.54377" lon="2.1696">
        <ele>73</ele>
        <time>2017-02-26T13:13:07Z</time>
      </trkpt>
      <trkpt lat="48.5439" lon="2.16932">
        <ele>71</ele>
        <time>2017-02-26T13:13:32Z</time>
      </trkpt>
      <trkpt lat="48.54409" lon="2.16906">
        <ele>68</ele>
        <time>2017-02-26T13:14:37Z</time>
      </trkpt>
      <trkpt lat="48.54418" lon="2.16874">
        <ele>68</ele>
        <time>2017-02-26T13:15:26Z</time>
      </trkpt>
      <trkpt lat="48.54447" lon="2.16818">
        <ele>68</ele>
        <time>2017-02-26T13:16:04Z</time>
      </trkpt>
      <trkpt lat="48.5447" lon="2.16758">
        <ele>69</ele>
        <time>2017-02-26T13:16:37Z</time>
      </trkpt>
      <trkpt lat="48.54495" lon="2.16696">
        <ele>70</ele>
        <time>2017-02-26T13:17:14Z</time>
      </trkpt>
      <trkpt lat="48.54523" lon="2.16642">
        <ele>72</ele>
        <time>2017-02-26T13:17:56Z</time>
      </trkpt>
      <trkpt lat="48.54549" lon="2.16585">
        <ele>75</ele>
        <time>2017-02-26T13:18:37Z</time>
      </trkpt>
      <trkpt lat="48.54571" lon="2.16524">
        <ele>78</ele>
        <time>2017-02-26T13:19:18Z</time>
      </trkpt>
      <trkpt lat="48.54593" lon="2.16464">
        <ele>80</ele>
        <time>2017-02-26T13:19:57Z</time>
      </trkpt>
      <trkpt lat="48.54617" lon="2.16405">
        <ele>83</ele>
        <time>2017-02-26T13:21:05Z</time>
      </trkpt>
      <trkpt lat="48.54627" lon="2.16367">
        <ele>86</ele>
        <time>2017-02-26T13:22:23Z</time>
      </trkpt>
      <trkpt lat="48.54646" lon="2.16302">
        <ele>90</ele>
        <time>2017-02-26T13:23:08Z</time>
      </trkpt>
      <trkpt lat="48.54667" lon="2.16241">
        <ele>93</ele>
        <time>2017-02-26T13:23:54Z</time>
      </trkpt>
      <trkpt lat="48.54692" lon="2.16176">
        <ele>95</ele>
        <time>2017-02-26T13:24:40Z</time>
      </trkpt>
      <trkpt lat="48.5471" lon="2.16112">
        <ele>97</ele>
        <time>2017-02-26T13:25:12Z</time>
      </trkpt>
      <trkpt lat="48.54738" lon="2.16057">
        <ele>100</ele>
        <time>2017-02-26T13:25:55Z</time>
      </trkpt>
      <trkpt lat="48.54753" lon="2.15991">
        <ele>101</ele>
        <time>2017-02-26T13:26:33Z</time>
      </trkpt>
      <trkpt lat="48.54779" lon="2.15935">
        <ele>103</ele>
        <time>2017-02-26T13:27:16Z</time>
      </trkpt>
      <trkpt lat="48.54795" lon="2.15868">
        <ele>106</ele>
        <time>2017-02-26T13:28:05Z</time>
      </trkpt>
      <trkpt lat="48.54809" lon="2.15803">
        <ele>110</ele>
        <time>2017-02-26T13:28:46Z</time>
      </trkpt>
      <trkpt lat="48.54817" lon="2.15769">
        <ele>111</ele>
        <time>2017-02-26T13:29:08Z</time>
      </trkpt>
      <trkpt lat="48.54818" lon="2.15736">
        <ele>112</ele>
        <time>2017-02-26T13:29:24Z</time>
      </trkpt>
      <trkpt lat="48.54828" lon="2.15706">
        <ele>113</ele>
        <time>2017-02-26T13:29:49Z</time>
      </trkpt>
      <trkpt lat="48.54836" lon="2.15638">
        <ele>113</ele>
        <time>2017-02-26T13:30:21Z</time>
      </trkpt>
      <trkpt lat="48.54837" lon="2.15603">
        <ele>113</ele>
        <time>2017-02-26T13:30:42Z</time>
      </trkpt>
      <trkpt lat="48.54855" lon="2.15541">
        <ele>114</ele>
        <time>2017-02-26T13:31:28Z</time>
      </trkpt>
      <trkpt lat="48.54848" lon="2.15508">
        <ele>114</ele>
        <time>2017-02-26T13:31:45Z</time>
      </trkpt>
      <trkpt lat="48.5487" lon="2.15446">
        <ele>114</ele>
        <time>2017-02-26T13:32:25Z</time>
      </trkpt>
      <trkpt lat="48.54887" lon="2.1538">
        <ele>112</ele>
        <time>2017-02-26T13:33:00Z</time>
      </trkpt>
      <trkpt lat="48.54895" lon="2.15345">
        <ele>111</ele>
        <time>2017-02-26T13:33:24Z</time>
      </trkpt>
      <trkpt lat="48.54893" lon="2.15312">
        <ele>109</ele>
        <time>2017-02-26T13:33:39Z</time>
      </trkpt>
      <trkpt lat="48.54895" lon="2.15276">
        <ele>108</ele>
        <time>2017-02-26T13:34:03Z</time>
      </trkpt>
      <trkpt lat="48.54908" lon="2.15245">
        <ele>106</ele>
        <time>2017-02-26T13:34:15Z</time>
      </trkpt>
      <trkpt lat="48.549" lon="2.15178">
        <ele>105</ele>
        <time>2017-02-26T13:34:43Z</time>
      </trkpt>
      <trkpt lat="48.54905" lon="2.15145">
        <ele>104</ele>
        <time>2017-02-26T13:35:13Z</time>
      </trkpt>
      <trkpt lat="48.54898" lon="2.15076">
        <ele>103</ele>
        <time>2017-02-26T13:35:45Z</time>
      </trkpt>
      <trkpt lat="48.54907" lon="2.15008">
        <ele>101</ele>
        <time>2017-02-26T13:36:28Z</time>
      </trkpt>
      <trkpt lat="48.54912" lon="2.14939">
        <ele>100</ele>
        <time>2017-02-26T13:37:07Z</time>
      </trkpt>
      <trkpt lat="48.5492" lon="2.14906">
        <ele>99</ele>
        <time>2017-02-26T13:37:24Z</time>
      </trkpt>
      <trkpt lat="48.54919" lon="2.14872">
        <ele>99</ele>
        <time>2017-02-26T13:37:48Z</time>
      </trkpt>
      <trkpt lat="48.54923" lon="2.14836">
        <ele>98</ele>
        <time>2017-02-26T13:38:12Z</time>
      </trkpt>
      <trkpt lat="48.54919" lon="2.148">
        <ele>98</ele>
        <time>2017-02-26T13:38:40Z</time>
      </trkpt>
      <trkpt lat="48.54912" lon="2.14768">
        <ele>98</ele>
        <time>2017-02-26T13:39:00Z</time>
      </trkpt>
      <trkpt lat="48.54922" lon="2.14701">
        <ele>98</ele>
        <time>2017-02-26T13:39:34Z</time>
      </trkpt>
      <trkpt lat="48.54928" lon="2.14631">
        <ele>99</ele>
        <time>2017-02-26T13:40:17Z</time>
      </trkpt>
      <trkpt lat="48.54937" lon="2.14599">
        <ele>99</ele>
        <time>2017-02-26T13:40:32Z</time>
      </trkpt>
      <trkpt lat="48.54941" lon="2.14563">
        <ele>100</ele>
        <time>2017-02-26T13:40:53Z</time>
      </trkpt>
      <trkpt lat="48.54935" lon="2.14495">
        <ele>100</ele>
        <time>2017-02-26T13:41:37Z</time>
      </trkpt>
      <trkpt lat="48.54931" lon="2.14422">
        <ele>99</ele>
        <time>2017-02-26T13:42:19Z</time>
      </trkpt>
      <trkpt lat="48.54929" lon="2.14386">
        <ele>99</ele>
        <time>2017-02-26T13:42:38Z</time>
      </trkpt>
      <trkpt lat="48.54936" lon="2.14352">
        <ele>99</ele>
        <time>2017-02-26T13:42:55Z</time>
      </trkpt>
      <trkpt lat="48.54938" lon="2.14318">
        <ele>99</ele>
        <time>2017-02-26T13:43:17Z</time>
      </trkpt>
      <trkpt lat="48.54924" lon="2.14251">
        <ele>98</ele>
        <time>2017-02-26T13:43:49Z</time>
      </trkpt>
      <trkpt lat="48.5492" lon="2.1418">
        <ele>97</ele>
        <time>2017-02-26T13:44:25Z</time>
      </trkpt>
      <trkpt lat="48.54915" lon="2.14111">
        <ele>96</ele>
        <time>2017-02-26T13:45:03Z</time>
      </trkpt>
      <trkpt lat="48.54914" lon="2.14076">
        <ele>96</ele>
        <time>2017-02-26T13:45:19Z</time>
      </trkpt>
      <trkpt lat="48.54921" lon="2.14041">
        <ele>96</ele>
        <time>2017-02-26T13:45:39Z</time>
      </trkpt>
      <trkpt lat="48.54922" lon="2.14007">
        <ele>95</ele>
        <time>2017-02-26T13:45:55Z</time>
      </trkpt>
      <trkpt lat="48.54908" lon="2.1398">
        <ele>95</ele>
        <time>2017-02-26T13:46:18Z</time>
      </trkpt>
      <trkpt lat="48.54896" lon="2.13913">
        <ele>92</ele>
        <time>2017-02-26T13:46:57Z</time>
      </trkpt>
      <trkpt lat="48.54897" lon="2.13877">
        <ele>91</ele>
        <time>2017-02-26T13:47:22Z</time>
      </trkpt>
      <trkpt lat="48.54894" lon="2.13838">
        <ele>90</ele>
        <time>2017-02-26T13:47:52Z</time>
      </trkpt>
      <trkpt lat="48.54894" lon="2.13815">
        <ele>88</ele>
        <time>2017-02-26T13:49:34Z</time>
      </trkpt>
      <trkpt lat="48.54883" lon="2.13782">
        <ele>88</ele>
        <time>2017-02-26T13:55:24Z</time>
      </trkpt>
      <trkpt lat="48.54873" lon="2.13712">
        <ele>87</ele>
        <time>2017-02-26T13:56:08Z</time>
      </trkpt>
      <trkpt lat="48.54867" lon="2.13678">
        <ele>87</ele>
        <time>2017-02-26T13:56:27Z</time>
      </trkpt>
      <trkpt lat="48.54843" lon="2.13619">
        <ele>87</ele>
        <time>2017-02-26T13:56:58Z</time>
      </trkpt>
      <trkpt lat="48.54822" lon="2.13558">
        <ele>87</ele>
        <time>2017-02-26T13:57:31Z</time>
      </trkpt>
      <trkpt lat="48.54816" lon="2.13525">
        <ele>87</ele>
        <time>2017-02-26T13:57:48Z</time>
      </trkpt>
      <trkpt lat="48.54804" lon="2.13496">
        <ele>87</ele>
        <time>2017-02-26T13:58:11Z</time>
      </trkpt>
      <trkpt lat="48.54798" lon="2.13426">
        <ele>86</ele>
        <time>2017-02-26T13:58:49Z</time>
      </trkpt>
      <trkpt lat="48.54791" lon="2.13356">
        <ele>85</ele>
        <time>2017-02-26T13:59:22Z</time>
      </trkpt>
      <trkpt lat="48.54779" lon="2.13288">
        <ele>85</ele>
        <time>2017-02-26T14:00:03Z</time>
      </trkpt>
      <trkpt lat="48.54758" lon="2.13271">
        <ele>84</ele>
        <time>2017-02-26T14:02:10Z</time>
      </trkpt>
      <trkpt lat="48.54736" lon="2.13281">
        <ele>85</ele>
        <time>2017-02-26T14:02:29Z</time>
      </trkpt>
      <trkpt lat="48.54701" lon="2.13324">
        <ele>87</ele>
        <time>2017-02-26T14:03:11Z</time>
      </trkpt>
      <trkpt lat="48.54667" lon="2.13371">
        <ele>89</ele>
        <time>2017-02-26T14:03:56Z</time>
      </trkpt>
      <trkpt lat="48.54624" lon="2.13395">
        <ele>91</ele>
        <time>2017-02-26T14:04:31Z</time>
      </trkpt>
      <trkpt lat="48.54604" lon="2.13412">
        <ele>92</ele>
        <time>2017-02-26T14:04:51Z</time>
      </trkpt>
      <trkpt lat="48.54575" lon="2.13466">
        <ele>95</ele>
        <time>2017-02-26T14:05:30Z</time>
      </trkpt>
      <trkpt lat="48.54566" lon="2.13499">
        <ele>96</ele>
        <time>2017-02-26T14:05:58Z</time>
      </trkpt>
      <trkpt lat="48.54551" lon="2.13527">
        <ele>98</ele>
        <time>2017-02-26T14:06:57Z</time>
      </trkpt>
      <trkpt lat="48.54544" lon="2.13596">
        <ele>102</ele>
        <time>2017-02-26T14:07:39Z</time>
      </trkpt>
      <trkpt lat="48.54545" lon="2.13631">
        <ele>104</ele>
        <time>2017-02-26T14:07:57Z</time>
      </trkpt>
      <trkpt lat="48.54522" lon="2.13639">
        <ele>107</ele>
        <time>2017-02-26T14:08:18Z</time>
      </trkpt>
      <trkpt lat="48.54502" lon="2.13656">
        <ele>109</ele>
        <time>2017-02-26T14:08:42Z</time>
      </trkpt>
      <trkpt lat="48.54483" lon="2.13678">
        <ele>114</ele>
        <time>2017-02-26T14:09:22Z</time>
      </trkpt>
      <trkpt lat="48.5446" lon="2.13686">
        <ele>117</ele>
        <time>2017-02-26T14:09:47Z</time>
      </trkpt>
      <trkpt lat="48.54446" lon="2.1372">
        <ele>120</ele>
        <time>2017-02-26T14:10:21Z</time>
      </trkpt>
      <trkpt lat="48.54435" lon="2.1375">
        <ele>126</ele>
        <time>2017-02-26T14:10:40Z</time>
      </trkpt>
      <trkpt lat="48.54437" lon="2.13785">
        <ele>130</ele>
        <time>2017-02-26T14:11:02Z</time>
      </trkpt>
      <trkpt lat="48.54392" lon="2.138">
        <ele>148</ele>
        <time>2017-02-26T14:14:36Z</time>
      </trkpt>
      <trkpt lat="48.54347" lon="2.13813">
        <ele>149</ele>
        <time>2017-02-26T14:15:15Z</time>
      </trkpt>
      <trkpt lat="48.54303" lon="2.13838">
        <ele>149</ele>
        <time>2017-02-26T14:15:47Z</time>
      </trkpt>
      <trkpt lat="48.54258" lon="2.13853">
        <ele>149</ele>
        <time>2017-02-26T14:16:22Z</time>
      </trkpt>
      <trkpt lat="48.54214" lon="2.13864">
        <ele>149</ele>
        <time>2017-02-26T14:17:00Z</time>
      </trkpt>
      <trkpt lat="48.54167" lon="2.13866">
        <ele>148</ele>
        <time>2017-02-26T14:17:35Z</time>
      </trkpt>
      <trkpt lat="48.54121" lon="2.1385">
        <ele>148</ele>
        <time>2017-02-26T14:18:12Z</time>
      </trkpt>
      <trkpt lat="48.54099" lon="2.13842">
        <ele>147</ele>
        <time>2017-02-26T14:18:29Z</time>
      </trkpt>
      <trkpt lat="48.54076" lon="2.1384">
        <ele>147</ele>
        <time>2017-02-26T14:18:45Z</time>
      </trkpt>
      <trkpt lat="48.54059" lon="2.13819">
        <ele>147</ele>
        <time>2017-02-26T14:19:19Z</time>
      </trkpt>
      <trkpt lat="48.54042" lon="2.13755">
        <ele>147</ele>
        <time>2017-02-26T14:19:57Z</time>
      </trkpt>
      <trkpt lat="48.54025" lon="2.13691">
        <ele>148</ele>
        <time>2017-02-26T14:20:32Z</time>
      </trkpt>
      <trkpt lat="48.54008" lon="2.13627">
        <ele>149</ele>
        <time>2017-02-26T14:21:07Z</time>
      </trkpt>
      <trkpt lat="48.53989" lon="2.13563">
        <ele>149</ele>
        <time>2017-02-26T14:21:45Z</time>
      </trkpt>
      <trkpt lat="48.53969" lon="2.13499">
        <ele>149</ele>
        <time>2017-02-26T14:22:19Z</time>
      </trkpt>
      <trkpt lat="48.53949" lon="2.13436">
        <ele>150</ele>
        <time>2017-02-26T14:22:55Z</time>
      </trkpt>
      <trkpt lat="48.53931" lon="2.13371">
        <ele>150</ele>
        <time>2017-02-26T14:23:31Z</time>
      </trkpt>
      <trkpt lat="48.53923" lon="2.13339">
        <ele>150</ele>
        <time>2017-02-26T14:23:48Z</time>
      </trkpt>
      <trkpt lat="48.53922" lon="2.13305">
        <ele>150</ele>
        <time>2017-02-26T14:24:07Z</time>
      </trkpt>
      <trkpt lat="48.53907" lon="2.13238">
        <ele>150</ele>
        <time>2017-02-26T14:24:48Z</time>
      </trkpt>
      <trkpt lat="48.53884" lon="2.13179">
        <ele>148</ele>
        <time>2017-02-26T14:25:24Z</time>
      </trkpt>
      <trkpt lat="48.53863" lon="2.13119">
        <ele>147</ele>
        <time>2017-02-26T14:25:59Z</time>
      </trkpt>
      <trkpt lat="48.53854" lon="2.13087">
        <ele>146</ele>
        <time>2017-02-26T14:26:16Z</time>
      </trkpt>
      <trkpt lat="48.53857" lon="2.13018">
        <ele>145</ele>
        <time>2017-02-26T14:26:48Z</time>
      </trkpt>
      <trkpt lat="48.53855" lon="2.12949">
        <ele>144</ele>
        <time>2017-02-26T14:27:23Z</time>
      </trkpt>
      <trkpt lat="48.53859" lon="2.12879">
        <ele>144</ele>
        <time>2017-02-26T14:27:59Z</time>
      </trkpt>
      <trkpt lat="48.53861" lon="2.12845">
        <ele>144</ele>
        <time>2017-02-26T14:28:23Z</time>
      </trkpt>
      <trkpt lat="48.53848" lon="2.12816">
        <ele>143</ele>
        <time>2017-02-26T14:29:11Z</time>
      </trkpt>
      <trkpt lat="48.5384" lon="2.12783">
        <ele>143</ele>
        <time>2017-02-26T14:29:28Z</time>
      </trkpt>
      <trkpt lat="48.53818" lon="2.12723">
        <ele>142</ele>
        <time>2017-02-26T14:30:04Z</time>
      </trkpt>
      <trkpt lat="48.53792" lon="2.12665">
        <ele>140</ele>
        <time>2017-02-26T14:30:42Z</time>
      </trkpt>
      <trkpt lat="48.53772" lon="2.12602">
        <ele>139</ele>
        <time>2017-02-26T14:31:19Z</time>
      </trkpt>
      <trkpt lat="48.53756" lon="2.12538">
        <ele>139</ele>
        <time>2017-02-26T14:31:59Z</time>
      </trkpt>
      <trkpt lat="48.5374" lon="2.12472">
        <ele>139</ele>
        <time>2017-02-26T14:32:33Z</time>
      </trkpt>
      <trkpt lat="48.53726" lon="2.12407">
        <ele>140</ele>
        <time>2017-02-26T14:33:13Z</time>
      </trkpt>
      <trkpt lat="48.5371" lon="2.12342">
        <ele>141</ele>
        <time>2017-02-26T14:33:52Z</time>
      </trkpt>
      <trkpt lat="48.53686" lon="2.12283">
        <ele>142</ele>
        <time>2017-02-26T14:34:30Z</time>
      </trkpt>
      <trkpt lat="48.53677" lon="2.12251">
        <ele>142</ele>
        <time>2017-02-26T14:34:49Z</time>
      </trkpt>
      <trkpt lat="48.53649" lon="2.12195">
        <ele>143</ele>
        <time>2017-02-26T14:35:25Z</time>
      </trkpt>
      <trkpt lat="48.53627" lon="2.12135">
        <ele>145</ele>
        <time>2017-02-26T14:36:03Z</time>
      </trkpt>
      <trkpt lat="48.5361" lon="2.1207">
        <ele>146</ele>
        <time>2017-02-26T14:36:43Z</time>
      </trkpt>
      <trkpt lat="48.53594" lon="2.12004">
        <ele>148</ele>
        <time>2017-02-26T14:37:20Z</time>
      </trkpt>
      <trkpt lat="48.53581" lon="2.11937">
        <ele>150</ele>
        <time>2017-02-26T14:38:01Z</time>
      </trkpt>
      <trkpt lat="48.53573" lon="2.11869">
        <ele>151</ele>
        <time>2017-02-26T14:38:36Z</time>
      </trkpt>
      <trkpt lat="48.53572" lon="2.11835">
        <ele>151</ele>
        <time>2017-02-26T14:38:57Z</time>
      </trkpt>
      <trkpt lat="48.53561" lon="2.11768">
        <ele>151</ele>
        <time>2017-02-26T14:39:37Z</time>
      </trkpt>
      <trkpt lat="48.53551" lon="2.11701">
        <ele>152</ele>
        <time>2017-02-26T14:40:14Z</time>
      </trkpt>
      <trkpt lat="48.5357" lon="2.11682">
        <ele>154</ele>
        <time>2017-02-26T14:43:21Z</time>
      </trkpt>
      <trkpt lat="48.53616" lon="2.11663">
        <ele>154</ele>
        <time>2017-02-26T14:43:55Z</time>
      </trkpt>
      <trkpt lat="48.53661" lon="2.11652">
        <ele>153</ele>
        <time>2017-02-26T14:44:26Z</time>
      </trkpt>
      <trkpt lat="48.53682" lon="2.11637">
        <ele>153</ele>
        <time>2017-02-26T14:44:44Z</time>
      </trkpt>
      <trkpt lat="48.53689" lon="2.1157">
        <ele>152</ele>
        <time>2017-02-26T14:45:18Z</time>
      </trkpt>
      <trkpt lat="48.53703" lon="2.11542">
        <ele>152</ele>
        <time>2017-02-26T14:45:35Z</time>
      </trkpt>
      <trkpt lat="48.53709" lon="2.11473">
        <ele>151</ele>
        <time>2017-02-26T14:46:05Z</time>
      </trkpt>
      <trkpt lat="48.53719" lon="2.1144">
        <ele>150</ele>
        <time>2017-02-26T14:46:23Z</time>
      </trkpt>
      <trkpt lat="48.53728" lon="2.11372">
        <ele>150</ele>
        <time>2017-02-26T14:46:56Z</time>
      </trkpt>
      <trkpt lat="48.53747" lon="2.11308">
        <ele>150</ele>
        <time>2017-02-26T14:47:35Z</time>
      </trkpt>
      <trkpt lat="48.53743" lon="2.11274">
        <ele>150</ele>
        <time>2017-02-26T14:48:01Z</time>
      </trkpt>
      <trkpt lat="48.53722" lon="2.1126">
        <ele>151</ele>
        <time>2017-02-26T14:48:35Z</time>
      </trkpt>
      <trkpt lat="48.5368" lon="2.11232">
        <ele>152</ele>
        <time>2017-02-26T14:49:07Z</time>
      </trkpt>
      <trkpt lat="48.5366" lon="2.11212">
        <ele>152</ele>
        <time>2017-02-26T14:49:27Z</time>
      </trkpt>
      <trkpt lat="48.53645" lon="2.11147">
        <ele>152</ele>
        <time>2017-02-26T14:50:07Z</time>
      </trkpt>
      <trkpt lat="48.53636" lon="2.11115">
        <ele>152</ele>
        <time>2017-02-26T14:50:22Z</time>
      </trkpt>
      <trkpt lat="48.53631" lon="2.1108">
        <ele>152</ele>
        <time>2017-02-26T14:50:39Z</time>
      </trkpt>
      <trkpt lat="48.53595" lon="2.1099">
        <ele>153</ele>
        <time>2017-02-26T14:51:23Z</time>
      </trkpt>
      <trkpt lat="48.53566" lon="2.10936">
        <ele>154</ele>
        <time>2017-02-26T14:52:02Z</time>
      </trkpt>
      <trkpt lat="48.53551" lon="2.1091">
        <ele>154</ele>
        <time>2017-02-26T14:52:22Z</time>
      </trkpt>
      <trkpt lat="48.53545" lon="2.10876">
        <ele>154</ele>
        <time>2017-02-26T14:52:44Z</time>
      </trkpt>
      <trkpt lat="48.53547" lon="2.10809">
        <ele>153</ele>
        <time>2017-02-26T14:53:22Z</time>
      </trkpt>
      <trkpt lat="48.53536" lon="2.10742">
        <ele>152</ele>
        <time>2017-02-26T14:53:53Z</time>
      </trkpt>
      <trkpt lat="48.53528" lon="2.10672">
        <ele>151</ele>
        <time>2017-02-26T14:54:29Z</time>
      </trkpt>
      <trkpt lat="48.53515" lon="2.10605">
        <ele>149</ele>
        <time>2017-02-26T14:55:04Z</time>
      </trkpt>
      <trkpt lat="48.53505" lon="2.10537">
        <ele>148</ele>
        <time>2017-02-26T14:55:38Z</time>
      </trkpt>
      <trkpt lat="48.535" lon="2.10504">
        <ele>148</ele>
        <time>2017-02-26T14:55:57Z</time>
      </trkpt>
      <trkpt lat="48.53477" lon="2.10443">
        <ele>148</ele>
        <time>2017-02-26T14:56:33Z</time>
      </trkpt>
      <trkpt lat="48.53447" lon="2.10383">
        <ele>148</ele>
        <time>2017-02-26T14:57:14Z</time>
      </trkpt>
      <trkpt lat="48.53417" lon="2.10329">
        <ele>148</ele>
        <time>2017-02-26T14:57:56Z</time>
      </trkpt>
      <trkpt lat="48.53433" lon="2.10304">
        <ele>148</ele>
        <time>2017-02-26T14:58:16Z</time>
      </trkpt>
      <trkpt lat="48.53453" lon="2.10286">
        <ele>148</ele>
        <time>2017-02-26T14:58:35Z</time>
      </trkpt>
      <trkpt lat="48.53457" lon="2.10252">
        <ele>148</ele>
        <time>2017-02-26T14:58:59Z</time>
      </trkpt>
      <trkpt lat="48.53424" lon="2.10204">
        <ele>148</ele>
        <time>2017-02-26T14:59:36Z</time>
      </trkpt>
      <trkpt lat="48.53404" lon="2.10187">
        <ele>149</ele>
        <time>2017-02-26T14:59:55Z</time>
      </trkpt>
      <trkpt lat="48.53358" lon="2.10175">
        <ele>149</ele>
        <time>2017-02-26T15:00:35Z</time>
      </trkpt>
      <trkpt lat="48.53336" lon="2.10173">
        <ele>149</ele>
        <time>2017-02-26T15:00:53Z</time>
      </trkpt>
      <trkpt lat="48.53295" lon="2.10138">
        <ele>149</ele>
        <time>2017-02-26T15:01:34Z</time>
      </trkpt>
      <trkpt lat="48.53284" lon="2.10139">
        <ele>150</ele>
        <time>2017-02-26T15:02:18Z</time>
      </trkpt>
      <trkpt lat="48.53308" lon="2.10143">
        <ele>150</ele>
        <time>2017-02-26T15:02:36Z</time>
      </trkpt>
      <trkpt lat="48.53326" lon="2.10121">
        <ele>149</ele>
        <time>2017-02-26T15:03:14Z</time>
      </trkpt>
      <trkpt lat="48.53332" lon="2.10088">
        <ele>149</ele>
        <time>2017-02-26T15:03:34Z</time>
      </trkpt>
      <trkpt lat="48.53327" lon="2.10055">
        <ele>148</ele>
        <time>2017-02-26T15:04:11Z</time>
      </trkpt>
      <trkpt lat="48.53317" lon="2.10023">
        <ele>147</ele>
        <time>2017-02-26T15:04:26Z</time>
      </trkpt>
      <trkpt lat="48.53321" lon="2.09954">
        <ele>146</ele>
        <time>2017-02-26T15:05:02Z</time>
      </trkpt>
      <trkpt lat="48.53321" lon="2.0992">
        <ele>146</ele>
        <time>2017-02-26T15:05:21Z</time>
      </trkpt>
      <trkpt lat="48.533" lon="2.09858">
        <ele>146</ele>
        <time>2017-02-26T15:05:59Z</time>
      </trkpt>
      <trkpt lat="48.53278" lon="2.09797">
        <ele>148</ele>
        <time>2017-02-26T15:06:40Z</time>
      </trkpt>
      <trkpt lat="48.53263" lon="2.09732">
        <ele>149</ele>
        <time>2017-02-26T15:07:15Z</time>
      </trkpt>
      <trkpt lat="48.53247" lon="2.09667">
        <ele>149</ele>
        <time>2017-02-26T15:07:52Z</time>
      </trkpt>
      <trkpt lat="48.53245" lon="2.09633">
        <ele>150</ele>
        <time>2017-02-26T15:08:37Z</time>
      </trkpt>
      <trkpt lat="48.53244" lon="2.09565">
        <ele>150</ele>
        <time>2017-02-26T15:09:16Z</time>
      </trkpt>
      <trkpt lat="48.53246" lon="2.09494">
        <ele>151</ele>
        <time>2017-02-26T15:10:00Z</time>
      </trkpt>
      <trkpt lat="48.53256" lon="2.09463">
        <ele>151</ele>
        <time>2017-02-26T15:10:20Z</time>
      </trkpt>
      <trkpt lat="48.53261" lon="2.0943">
        <ele>151</ele>
        <time>2017-02-26T15:10:37Z</time>
      </trkpt>
      <trkpt lat="48.53246" lon="2.09404">
        <ele>151</ele>
        <time>2017-02-26T15:10:55Z</time>
      </trkpt>
      <trkpt lat="48.53209" lon="2.09361">
        <ele>150</ele>
        <time>2017-02-26T15:11:41Z</time>
      </trkpt>
      <trkpt lat="48.53195" lon="2.09344">
        <ele>149</ele>
        <time>2017-02-26T15:13:34Z</time>
      </trkpt>
      <trkpt lat="48.53203" lon="2.09311">
        <ele>148</ele>
        <time>2017-02-26T15:15:50Z</time>
      </trkpt>
      <trkpt lat="48.53208" lon="2.09242">
        <ele>146</ele>
        <time>2017-02-26T15:16:34Z</time>
      </trkpt>
      <trkpt lat="48.53214" lon="2.09174">
        <ele>143</ele>
        <time>2017-02-26T15:17:08Z</time>
      </trkpt>
      <trkpt lat="48.53216" lon="2.09139">
        <ele>142</ele>
        <time>2017-02-26T15:17:33Z</time>
      </trkpt>
      <trkpt lat="48.53245" lon="2.09087">
        <ele>138</ele>
        <time>2017-02-26T15:18:13Z</time>
      </trkpt>
      <trkpt lat="48.53276" lon="2.09034">
        <ele>134</ele>
        <time>2017-02-26T15:18:54Z</time>
      </trkpt>
      <trkpt lat="48.53293" lon="2.0901">
        <ele>132</ele>
        <time>2017-02-26T15:19:08Z</time>
      </trkpt>
      <trkpt lat="48.53308" lon="2.08984">
        <ele>130</ele>
        <time>2017-02-26T15:19:26Z</time>
      </trkpt>
      <trkpt lat="48.53332" lon="2.08927">
        <ele>124</ele>
        <time>2017-02-26T15:19:58Z</time>
      </trkpt>
      <trkpt lat="48.53339" lon="2.08894">
        <ele>122</ele>
        <time>2017-02-26T15:20:14Z</time>
      </trkpt>
      <trkpt lat="48.53372" lon="2.08845">
        <ele>116</ele>
        <time>2017-02-26T15:20:44Z</time>
      </trkpt>
      <trkpt lat="48.53394" lon="2.08784">
        <ele>113</ele>
        <time>2017-02-26T15:21:18Z</time>
      </trkpt>
      <trkpt lat="48.53417" lon="2.08724">
        <ele>112</ele>
        <time>2017-02-26T15:21:52Z</time>
      </trkpt>
      <trkpt lat="48.53443" lon="2.08667">
        <ele>112</ele>
        <time>2017-02-26T15:22:27Z</time>
      </trkpt>
      <trkpt lat="48.53473" lon="2.08614">
        <ele>112</ele>
        <time>2017-02-26T15:23:03Z</time>
      </trkpt>
      <trkpt lat="48.53511" lon="2.08573">
        <ele>114</ele>
        <time>2017-02-26T15:23:44Z</time>
      </trkpt>
      <trkpt lat="48.53525" lon="2.08547">
        <ele>115</ele>
        <time>2017-02-26T15:24:02Z</time>
      </trkpt>
      <trkpt lat="48.53544" lon="2.08526">
        <ele>116</ele>
        <time>2017-02-26T15:24:25Z</time>
      </trkpt>
      <trkpt lat="48.53566" lon="2.08513">
        <ele>116</ele>
        <time>2017-02-26T15:24:44Z</time>
      </trkpt>
      <trkpt lat="48.53589" lon="2.08512">
        <ele>116</ele>
        <time>2017-02-26T15:25:03Z</time>
      </trkpt>
      <trkpt lat="48.53611" lon="2.08502">
        <ele>115</ele>
        <time>2017-02-26T15:25:19Z</time>
      </trkpt>
      <trkpt lat="48.53627" lon="2.08478">
        <ele>115</ele>
        <time>2017-02-26T15:25:39Z</time>
      </trkpt>
      <trkpt lat="48.53627" lon="2.08442">
        <ele>114</ele>
        <time>2017-02-26T15:25:57Z</time>
      </trkpt>
      <trkpt lat="48.53644" lon="2.0842">
        <ele>113</ele>
        <time>2017-02-26T15:26:22Z</time>
      </trkpt>
      <trkpt lat="48.53661" lon="2.08355">
        <ele>110</ele>
        <time>2017-02-26T15:26:55Z</time>
      </trkpt>
      <trkpt lat="48.53683" lon="2.08294">
        <ele>106</ele>
        <time>2017-02-26T15:27:29Z</time>
      </trkpt>
      <trkpt lat="48.53698" lon="2.08228">
        <ele>100</ele>
        <time>2017-02-26T15:28:03Z</time>
      </trkpt>
      <trkpt lat="48.53711" lon="2.08161">
        <ele>92</ele>
        <time>2017-02-26T15:28:48Z</time>
      </trkpt>
      <trkpt lat="48.537" lon="2.0813">
        <ele>90</ele>
        <time>2017-02-26T15:29:02Z</time>
      </trkpt>
      <trkpt lat="48.53686" lon="2.08104">
        <ele>88</ele>
        <time>2017-02-26T15:29:36Z</time>
      </trkpt>
      <trkpt lat="48.53685" lon="2.08091">
        <ele>87</ele>
        <time>2017-02-26T15:29:43Z</time>
      </trkpt>
      <trkpt lat="48.5367" lon="2.08066">
        <ele>86</ele>
        <time>2017-02-26T15:29:58Z</time>
      </trkpt>
      <trkpt lat="48.53647" lon="2.08061">
        <ele>85</ele>
        <time>2017-02-26T15:30:23Z</time>
      </trkpt>
      <trkpt lat="48.53628" lon="2.08043">
        <ele>84</ele>
        <time>2017-02-26T15:30:49Z</time>
      </trkpt>
      <trkpt lat="48.53625" lon="2.08009">
        <ele>84</ele>
        <time>2017-02-26T15:31:10Z</time>
      </trkpt>
      <trkpt lat="48.53622" lon="2.07985">
        <ele>84</ele>
        <time>2017-02-26T15:31:48Z</time>
      </trkpt>
      <trkpt lat="48.53636" lon="2.07956">
        <ele>83</ele>
        <time>2017-02-26T15:32:08Z</time>
      </trkpt>
      <trkpt lat="48.53627" lon="2.07888">
        <ele>82</ele>
        <time>2017-02-26T15:32:40Z</time>
      </trkpt>
      <trkpt lat="48.53613" lon="2.07822">
        <ele>81</ele>
        <time>2017-02-26T15:33:11Z</time>
      </trkpt>
      <trkpt lat="48.53601" lon="2.07755">
        <ele>82</ele>
        <time>2017-02-26T15:33:44Z</time>
      </trkpt>
      <trkpt lat="48.53586" lon="2.07688">
        <ele>82</ele>
        <time>2017-02-26T15:34:18Z</time>
      </trkpt>
      <trkpt lat="48.53567" lon="2.07624">
        <ele>82</ele>
        <time>2017-02-26T15:34:51Z</time>
      </trkpt>
      <trkpt lat="48.53541" lon="2.07568">
        <ele>82</ele>
        <time>2017-02-26T15:35:23Z</time>
      </trkpt>
      <trkpt lat="48.5353" lon="2.07536">
        <ele>82</ele>
        <time>2017-02-26T15:35:40Z</time>
      </trkpt>
      <trkpt lat="48.53514" lon="2.07509">
        <ele>81</ele>
        <time>2017-02-26T15:35:57Z</time>
      </trkpt>
      <trkpt lat="48.5349" lon="2.0745">
        <ele>82</ele>
        <time>2017-02-26T15:36:31Z</time>
      </trkpt>
      <trkpt lat="48.53459" lon="2.07398">
        <ele>81</ele>
        <time>2017-02-26T15:37:05Z</time>
      </trkpt>
      <trkpt lat="48.53452" lon="2.07384">
        <ele>81</ele>
        <time>2017-02-26T15:37:13Z</time>
      </trkpt>
      <trkpt lat="48.53477" lon="2.07324">
        <ele>81</ele>
        <time>2017-02-26T15:37:50Z</time>
      </trkpt>
      <trkpt lat="48.53487" lon="2.07294">
        <ele>81</ele>
        <time>2017-02-26T15:38:07Z</time>
      </trkpt>
      <trkpt lat="48.53502" lon="2.0723">
        <ele>82</ele>
        <time>2017-02-26T15:38:42Z</time>
      </trkpt>
      <trkpt lat="48.53526" lon="2.07171">
        <ele>82</ele>
        <time>2017-02-26T15:39:13Z</time>
      </trkpt>
      <trkpt lat="48.53532" lon="2.07137">
        <ele>83</ele>
        <time>2017-02-26T15:39:33Z</time>
      </trkpt>
      <trkpt lat="48.53538" lon="2.07069">
        <ele>83</ele>
        <time>2017-02-26T15:40:08Z</time>
      </trkpt>
      <trkpt lat="48.53547" lon="2.07038">
        <ele>84</ele>
        <time>2017-02-26T15:40:23Z</time>
      </trkpt>
      <trkpt lat="48.53551" lon="2.07005">
        <ele>85</ele>
        <time>2017-02-26T15:40:41Z</time>
      </trkpt>
      <trkpt lat="48.53541" lon="2.06973">
        <ele>85</ele>
        <time>2017-02-26T15:40:58Z</time>
      </trkpt>
      <trkpt lat="48.53556" lon="2.06945">
        <ele>85</ele>
        <time>2017-02-26T15:41:32Z</time>
      </trkpt>
      <trkpt lat="48.53566" lon="2.06905">
        <ele>86</ele>
        <time>2017-02-26T15:41:55Z</time>
      </trkpt>
    </trkseg>
  </trk>
</gpx>